Estación Meteorológica Peña el Pijo (Robertgarden) [ 07/23/19 13:34:29 CEST ]

Fecha Hora Presion(HPa) Temp (°C) Humedad % Rocio (°C) Viento ( m/s) Direccion Lluvia 1Hora(mm) Lluvia 24H(mm) LLuvia Total(mm)
2018-Nov-27 01:01:59 1011.300 3.9 82 1.0       2.59 154.88
2018-Nov-27 02:02:25 1011.200 3.6 82 0.8       2.59 154.88
2018-Nov-27 03:05:13 1011.600 2.4 83 -0.2       2.59 154.88
2018-Nov-27 04:01:54 1011.700 1.2 84 -1.3       2.59 154.88
2018-Nov-27 05:01:37 1011.200 1.0 85 -1.3       2.59 154.88
2018-Nov-27 06:01:36 1011.600 0.5 86 -1.6       2.59 154.88
2018-Nov-27 07:01:43 1011.600 1.0 87 -1.0       2.59 154.88
2018-Nov-27 08:01:37 1012.100 1.3 87 -0.7       2.59 154.88
2018-Nov-27 09:01:44 1012.200 2.1 88 0.3       2.59 154.88
2018-Nov-27 10:02:01 1011.900 4.7 86 2.5       2.59 154.88
2018-Nov-27 11:01:45 1012.000 8.2 79 4.8       2.59 154.88
2018-Nov-27 12:01:42 1011.700 11.8 58 3.8       2.59 154.88
2018-Nov-27 13:01:52 1011.200 14.8 44 2.6       2.59 154.88
2018-Nov-27 14:01:48 1010.500 17.2 33 1.2       2.59 154.88
2018-Nov-27 15:01:35 1010.800 17.8 29 -0.5       2.59 154.88
2018-Nov-27 16:01:41 1010.600 16.3 32 -0.5       2.07 154.88
2018-Nov-27 17:01:41 1011.100 12.9 30 -4.3 0.8 NNW   0.51 154.88
2018-Nov-27 18:01:48 1011.600 8.1 48 -2.3         154.88
2018-Nov-27 19:01:38 1012.400 4.8 59 -2.6         154.88
2018-Nov-27 20:01:35 1012.800 4.6 60 -2.5         154.88
2018-Nov-27 21:01:47 1013.200 3.8 61 -3.1         154.88
2018-Nov-27 22:01:49 1013.400 3.1 62 -3.5         154.88
2018-Nov-27 23:01:43 1013.200 2.4 63 -3.9         154.88

Temperatura Máxima:17°    Temperatura Mínima:
Presión Máxima:1013.400 Hpa    Presión Mínima:1010.500 Hpa


Volver